Craig, Iowa
Current Conditions -  °F | °C
As of 11:15 PM on Saturday 20 Dec 2014 (Local Time) from KLRJ Reporting Station
Haze Haze  
Wind Chill: 24°   Ceiling: 300
Heat Index: 32°   Visibility: 2mi
Dew Point: 32°   Wind: 10mph
Humidity: 100%   Direction: 170°S
Pressure: 30"   Gusts: 17mph
Location:  42.9°N, 96.31°W
Report Text: KLRJ 210515Z AUTO 17009G15KT 2SM BR OVC003 M00/M00 A3000 RMK AO2
Loading
Personal Weather Stations






























Interactive Weather Map New forecast layout! Learn more

10-Day Weather Forecast

Advertisements
Track Severe Weather on mobile